Time;durP1;ratioP1;P1;durP2;ratioP2;P2;SDS_P1;SDS_P2;PMS_P1;PMS_P2;Temp;Humidity;BMP_temperature;BMP_pressure;BME280_temperature;BME280_humidity;BME280_pressure;Samples;Min_cycle;Max_cycle;Signal;HPM_P1;HPM_P2
2022/01/21 00:00:08;;;;;;;;;;;3.10;99.90;3.70;100770.00;;;;338905;28;90852;-95
2022/01/21 00:00:19;;;;;;;;;;;3.10;99.90;3.70;100768.00;;;;336445;28;82607;-95
2022/01/21 00:00:31;;;;;;;;;;;3.10;99.90;3.60;100757.00;;;;336150;28;91886;-96
2022/01/21 00:00:43;;;;;;;;;;;3.10;99.90;3.60;100772.00;;;;337949;28;82734;-95
2022/01/21 00:00:56;;;;;;;;;;;3.10;99.90;3.60;100770.00;;;;340282;28;91549;-95
2022/01/21 00:01:08;;;;;;;;;;;3.10;99.90;3.60;100779.00;;;;338029;28;82429;-96
2022/01/21 00:01:21;;;;;;;;;;;3.10;99.90;3.70;100769.00;;;;338805;28;92130;-95
2022/01/21 00:01:34;;;;;;;;;;;3.10;99.90;3.60;100769.00;;;;338095;28;82582;-95
2022/01/21 00:01:46;;;;;;;;;;;3.10;99.90;3.60;100773.00;;;;338859;28;90895;-94
2022/01/21 00:01:58;;;;;;;;;;;3.10;99.90;3.70;100777.00;;;;340684;28;83448;-95
2022/01/21 00:02:10;;;;;;;;;;;3.00;99.90;3.70;100768.00;;;;339989;28;90826;-94
2022/01/21 00:02:24;;;;;;;;;;;3.10;99.90;3.70;100774.00;;;;337934;28;82914;-95
2022/01/21 00:02:36;;;;;;;;;;;3.10;99.90;3.60;100772.00;;;;338835;28;89375;-95
2022/01/21 00:02:48;;;;;;;;;;;3.10;99.90;3.70;100775.00;;;;340583;28;83546;-95
2022/01/21 00:03:00;;;;;;;;;;;3.10;99.90;3.60;100768.00;;;;337652;28;90311;-96
2022/01/21 00:03:12;;;;;;;;;;;3.10;99.90;3.70;100776.00;;;;340613;28;83510;-95
2022/01/21 00:03:24;;;;;;;;;;;3.10;99.90;3.60;100771.00;;;;335534;28;90908;-95
2022/01/21 00:03:36;;;;;;;;;;;3.00;99.90;3.70;100774.00;;;;336684;28;83338;-95
2022/01/21 00:03:47;;;;;;;;;;;3.10;99.90;3.60;100769.00;;;;339524;28;91560;-96
2022/01/21 00:03:59;;;;;;;;;;;3.10;99.90;3.60;100775.00;;;;340595;28;82349;-94
2022/01/21 00:04:11;;;;;;;;;;;3.00;99.90;3.60;100785.00;;;;337342;28;90455;-95
2022/01/21 00:04:23;;;;;;;;;;;3.10;99.90;3.60;100773.00;;;;337660;28;83478;-96
2022/01/21 00:04:35;;;;;;;;;;;3.00;99.90;3.60;100772.00;;;;338916;28;92103;-95
2022/01/21 00:04:47;;;;;;;;;;;3.00;99.90;3.60;100762.00;;;;336851;28;82416;-95
2022/01/21 00:04:59;;;;;;;;;;;3.00;99.90;3.60;100767.00;;;;336293;28;91138;-95
2022/01/21 00:05:11;;;;;;;;;;;3.00;99.90;3.60;100769.00;;;;336443;28;83230;-95
2022/01/21 00:05:23;;;;;;;;;;;3.10;99.90;3.60;100773.00;;;;338802;28;91748;-95
2022/01/21 00:05:35;;;;;;;;;;;3.10;99.90;3.60;100770.00;;;;336694;28;83343;-95
2022/01/21 00:05:47;;;;;;;;;;;3.00;99.90;3.60;100774.00;;;;338963;28;90881;-96
2022/01/21 00:05:59;;;;;;;;;;;3.00;99.90;3.60;100768.00;;;;337980;28;82377;-95
2022/01/21 00:06:11;;;;;;;;;;;3.00;99.90;3.60;100777.00;;;;338857;28;91770;-94
2022/01/21 00:06:23;;;;;;;;;;;3.00;99.90;3.50;100786.00;;;;340513;28;83512;-94
2022/01/21 00:06:35;;;;;;;;;;;3.00;99.90;3.60;100772.00;;;;339747;28;90648;-95
2022/01/21 00:06:47;;;;;;;;;;;3.10;99.90;3.60;100772.00;;;;339372;28;82480;-95
2022/01/21 00:06:59;;;;;;;;;;;3.00;99.90;3.60;100777.00;;;;337779;28;91560;-95
2022/01/21 00:07:11;;;;;;;;;;;3.00;99.90;3.60;100777.00;;;;336426;28;82556;-94
2022/01/21 00:07:23;;;;;;;;;;;3.00;99.90;3.50;100772.00;;;;337429;28;90418;-94
2022/01/21 00:07:35;;;;;;;;;;;3.00;99.90;3.50;100770.00;;;;339478;28;83463;-95
2022/01/21 00:07:47;;;;;;;;;;;3.00;99.90;3.60;100765.00;;;;337759;28;90531;-95
2022/01/21 00:07:59;;;;;;;;;;;3.00;99.90;3.50;100772.00;;;;338140;28;83404;-95
2022/01/21 00:08:11;;;;;;;;;;;3.00;99.90;3.60;100769.00;;;;338882;28;91800;-95
2022/01/21 00:08:23;;;;;;;;;;;3.00;99.90;3.60;100764.00;;;;336922;28;82461;-95
2022/01/21 00:08:39;;;;;;;;;;;3.00;99.90;3.50;100775.00;;;;336137;28;90522;-94
2022/01/21 00:08:52;;;;;;;;;;;3.00;99.90;3.60;100770.00;;;;338035;28;82653;-95
2022/01/21 00:09:04;;;;;;;;;;;3.00;99.90;3.60;100766.00;;;;336479;28;88363;-94
2022/01/21 00:09:15;;;;;;;;;;;3.00;99.90;3.60;100772.00;;;;339190;28;82475;-95
2022/01/21 00:09:27;;;;;;;;;;;3.00;99.90;3.60;100773.00;;;;340095;28;90031;-95
2022/01/21 00:09:40;;;;;;;;;;;3.00;99.90;3.60;100764.00;;;;338137;28;82431;-95
2022/01/21 00:09:52;;;;;;;;;;;3.00;99.90;3.60;100759.00;;;;340127;28;90788;-94
2022/01/21 00:10:04;;;;;;;;;;;3.00;99.90;3.60;100761.00;;;;336818;28;83338;-95
2022/01/21 00:10:16;;;;;;;;;;;3.00;99.90;3.60;100761.00;;;;336459;28;90374;-95
2022/01/21 00:10:28;;;;;;;;;;;3.00;99.90;3.60;100767.00;;;;338056;28;83254;-95
2022/01/21 00:10:40;;;;;;;;;;;3.00;99.90;3.60;100760.00;;;;334879;29;90585;-95
2022/01/21 00:10:52;;;;;;;;;;;3.00;99.90;3.60;100762.00;;;;338020;28;82566;-94
2022/01/21 00:11:04;;;;;;;;;;;3.00;99.90;3.60;100772.00;;;;335050;29;91388;-95
2022/01/21 00:11:16;;;;;;;;;;;3.00;99.90;3.60;100768.00;;;;336733;28;83291;-95
2022/01/21 00:11:30;;;;;;;;;;;3.00;99.90;3.60;100769.00;;;;337483;28;90594;-96
2022/01/21 00:11:42;;;;;;;;;;;3.00;99.90;3.50;100770.00;;;;336705;28;82456;-96
2022/01/21 00:11:54;;;;;;;;;;;3.00;99.90;3.50;100758.00;;;;334973;29;91873;-95
2022/01/21 00:12:06;;;;;;;;;;;3.00;99.90;3.50;100763.00;;;;340790;28;82865;-95
2022/01/21 00:12:18;;;;;;;;;;;2.90;99.90;3.50;100771.00;;;;336641;28;92549;-95
2022/01/21 00:12:31;;;;;;;;;;;3.00;99.90;3.60;100763.00;;;;333120;29;83399;-95
2022/01/21 00:12:43;;;;;;;;;;;3.00;99.90;3.50;100764.00;;;;336479;28;90374;-95
2022/01/21 00:12:56;;;;;;;;;;;3.00;99.90;3.50;100767.00;;;;336773;28;83226;-95
2022/01/21 00:13:18;;;;;;;;;;;2.90;99.90;3.50;100754.00;;;;336335;28;90466;-95
2022/01/21 00:13:36;;;;;;;;;;;3.00;99.90;3.60;100767.00;;;;337731;28;83340;-95
2022/01/21 00:13:49;;;;;;;;;;;2.90;99.90;3.60;100760.00;;;;337731;28;88108;-96
2022/01/21 00:14:02;;;;;;;;;;;2.90;99.90;3.50;100763.00;;;;337906;28;82429;-95
2022/01/21 00:14:13;;;;;;;;;;;2.90;99.90;3.50;100767.00;;;;337501;28;90710;-95
2022/01/21 00:14:25;;;;;;;;;;;2.90;99.90;3.50;100762.00;;;;337770;28;82578;-95
2022/01/21 00:14:37;;;;;;;;;;;2.90;99.90;3.50;100756.00;;;;338860;28;88850;-95
2022/01/21 00:14:49;;;;;;;;;;;2.90;99.90;3.60;100757.00;;;;339256;28;83434;-95
2022/01/21 00:15:04;;;;;;;;;;;3.00;99.90;3.60;100741.00;;;;337584;28;91894;-95
2022/01/21 00:15:16;;;;;;;;;;;2.90;99.90;3.60;100747.00;;;;336370;28;83438;-95
2022/01/21 00:15:27;;;;;;;;;;;3.00;99.90;3.50;100757.00;;;;337521;28;91397;-95
2022/01/21 00:15:39;;;;;;;;;;;2.90;99.90;3.60;100745.00;;;;339133;28;83321;-95
2022/01/21 00:15:51;;;;;;;;;;;3.00;99.90;3.60;100757.00;;;;338822;28;90754;-95
2022/01/21 00:16:08;;;;;;;;;;;3.00;99.90;3.60;100748.00;;;;336738;28;83535;-95
2022/01/21 00:16:21;;;;;;;;;;;2.90;99.90;3.50;100752.00;;;;334915;29;92091;-94
2022/01/21 00:16:34;;;;;;;;;;;3.00;99.90;3.50;100744.00;;;;339175;28;83354;-96
2022/01/21 00:16:47;;;;;;;;;;;3.00;99.90;3.50;100756.00;;;;341464;28;92665;-95
2022/01/21 00:16:58;;;;;;;;;;;2.90;99.90;3.50;100759.00;;;;338092;28;82290;-96
2022/01/21 00:17:10;;;;;;;;;;;3.00;99.90;3.50;100752.00;;;;338839;28;90716;-94
2022/01/21 00:17:23;;;;;;;;;;;2.90;99.90;3.50;100757.00;;;;337876;28;82607;-95
2022/01/21 00:17:35;;;;;;;;;;;3.00;99.90;3.50;100742.00;;;;340208;28;90535;-95
2022/01/21 00:17:47;;;;;;;;;;;2.90;99.90;3.50;100738.00;;;;339294;28;83266;-94
2022/01/21 00:17:59;;;;;;;;;;;3.00;99.90;3.40;100746.00;;;;338915;28;90558;-94
2022/01/21 00:18:12;;;;;;;;;;;2.90;99.90;3.50;100750.00;;;;339281;28;83258;-95
2022/01/21 00:18:24;;;;;;;;;;;2.90;99.90;3.50;100752.00;;;;337310;28;90649;-95
2022/01/21 00:18:37;;;;;;;;;;;2.90;99.90;3.40;100750.00;;;;336572;28;82620;-95
2022/01/21 00:18:55;;;;;;;;;;;2.90;99.90;3.40;100754.00;;;;337461;28;90258;-94
2022/01/21 00:19:12;;;;;;;;;;;2.90;99.90;3.50;100751.00;;;;340688;28;83121;-94
2022/01/21 00:19:26;;;;;;;;;;;2.90;99.90;3.40;100742.00;;;;341505;28;89785;-95
2022/01/21 00:19:41;;;;;;;;;;;2.90;99.90;3.50;100752.00;;;;337701;28;83301;-94
2022/01/21 00:30:08;;;;;;;;;;;2.90;99.90;3.50;100747.00;;;;341355;28;90162;-94
2022/01/21 00:30:24;;;;;;;;;;;2.80;99.90;3.40;100759.00;;;;338435;28;83372;-95
2022/01/21 00:30:36;;;;;;;;;;;2.80;99.90;3.40;100747.00;;;;338926;28;90961;-95
2022/01/21 00:30:48;;;;;;;;;;;2.80;99.90;3.40;100751.00;;;;336985;28;84145;-95
2022/01/21 00:31:00;;;;;;;;;;;2.80;99.90;3.40;100760.00;;;;340851;28;89973;-95
2022/01/21 00:31:11;;;;;;;;;;;2.80;99.90;3.40;100762.00;;;;338467;28;82526;-95
2022/01/21 00:31:23;;;;;;;;;;;2.80;99.90;3.40;100757.00;;;;338106;28;90658;-95
2022/01/21 00:31:35;;;;;;;;;;;2.80;99.90;3.40;100748.00;;;;339897;28;82508;-95
2022/01/21 00:31:47;;;;;;;;;;;2.80;99.90;3.40;100752.00;;;;338032;28;90584;-96
2022/01/21 00:31:59;;;;;;;;;;;2.80;99.90;3.40;100757.00;;;;339786;28;83342;-95
2022/01/21 00:32:11;;;;;;;;;;;2.80;99.90;3.40;100750.00;;;;340544;28;91785;-95
2022/01/21 00:32:22;;;;;;;;;;;2.80;99.90;3.40;100757.00;;;;337138;28;82587;-95
2022/01/21 00:32:34;;;;;;;;;;;2.80;99.90;3.40;100752.00;;;;340774;28;90402;-95
2022/01/21 00:32:47;;;;;;;;;;;2.80;99.90;3.40;100744.00;;;;338343;28;82580;-95
2022/01/21 00:32:59;;;;;;;;;;;2.80;99.90;3.40;100754.00;;;;340642;28;90790;-95
2022/01/21 00:33:10;;;;;;;;;;;2.80;99.90;3.40;100753.00;;;;341142;28;82516;-95
2022/01/21 00:33:22;;;;;;;;;;;2.80;99.90;3.50;100749.00;;;;336304;28;91288;-95
2022/01/21 00:33:34;;;;;;;;;;;2.80;99.90;3.50;100756.00;;;;339059;28;82488;-96
2022/01/21 00:33:46;;;;;;;;;;;2.80;99.90;3.40;100753.00;;;;339502;28;90646;-95
2022/01/21 00:33:58;;;;;;;;;;;2.80;99.90;3.40;100750.00;;;;338556;28;82529;-96
2022/01/21 00:34:10;;;;;;;;;;;2.80;99.90;3.40;100753.00;;;;339434;28;91503;-95
2022/01/21 00:34:22;;;;;;;;;;;2.80;99.90;3.40;100754.00;;;;338415;28;82641;-95
2022/01/21 00:34:34;;;;;;;;;;;2.80;99.90;3.40;100760.00;;;;336755;28;90798;-95
2022/01/21 00:34:46;;;;;;;;;;;2.80;99.90;3.40;100755.00;;;;338495;28;83360;-95
2022/01/21 00:34:58;;;;;;;;;;;2.80;99.90;3.40;100764.00;;;;338179;28;90366;-96
2022/01/21 00:35:10;;;;;;;;;;;2.80;99.90;3.40;100750.00;;;;338228;28;82493;-95
2022/01/21 00:35:22;;;;;;;;;;;2.80;99.90;3.40;100757.00;;;;339029;28;91790;-95
2022/01/21 00:35:34;;;;;;;;;;;2.80;99.90;3.40;100761.00;;;;337981;28;82512;-95
2022/01/21 00:35:46;;;;;;;;;;;2.80;99.90;3.40;100754.00;;;;338955;28;91036;-95
2022/01/21 00:35:59;;;;;;;;;;;2.80;99.90;3.40;100750.00;;;;337894;28;82655;-96
2022/01/21 00:36:11;;;;;;;;;;;2.80;99.90;3.40;100753.00;;;;336211;28;90615;-95
2022/01/21 00:36:22;;;;;;;;;;;2.80;99.90;3.40;100760.00;;;;336398;28;82658;-95
2022/01/21 00:36:34;;;;;;;;;;;2.80;99.90;3.40;100756.00;;;;337238;28;90848;-95
2022/01/21 00:36:50;;;;;;;;;;;2.80;99.90;3.40;100757.00;;;;339408;28;83459;-95
2022/01/21 00:37:02;;;;;;;;;;;2.80;99.90;3.40;100755.00;;;;337629;28;90688;-96
2022/01/21 00:37:13;;;;;;;;;;;2.80;99.90;3.40;100760.00;;;;335099;29;83521;-96
2022/01/21 00:37:25;;;;;;;;;;;2.80;99.90;3.40;100756.00;;;;337572;28;92671;-95
2022/01/21 00:37:37;;;;;;;;;;;2.80;99.90;3.40;100756.00;;;;338010;28;83392;-95
2022/01/21 00:37:49;;;;;;;;;;;2.80;99.90;3.40;100756.00;;;;337582;28;89485;-95
2022/01/21 00:38:01;;;;;;;;;;;2.80;99.90;3.40;100760.00;;;;337938;28;83531;-95
2022/01/21 00:38:14;;;;;;;;;;;2.80;99.90;3.40;100749.00;;;;334986;29;91240;-95
2022/01/21 00:38:29;;;;;;;;;;;2.80;99.90;3.40;100746.00;;;;338009;28;83352;-95
2022/01/21 00:38:42;;;;;;;;;;;2.80;99.90;3.40;100751.00;;;;337396;28;89315;-95
2022/01/21 00:38:56;;;;;;;;;;;2.80;99.90;3.40;100748.00;;;;336629;28;83254;-95
2022/01/21 00:39:07;;;;;;;;;;;2.80;99.90;3.40;100752.00;;;;337680;28;87599;-94
2022/01/21 00:39:23;;;;;;;;;;;2.80;99.90;3.40;100762.00;;;;338392;28;82511;-94
2022/01/21 00:39:36;;;;;;;;;;;2.80;99.90;3.40;100756.00;;;;334890;29;92138;-95
2022/01/21 00:39:53;;;;;;;;;;;2.80;99.90;3.40;100748.00;;;;336736;28;82489;-94
2022/01/21 00:40:06;;;;;;;;;;;2.80;99.90;3.40;100754.00;;;;336303;28;91941;-95
2022/01/21 00:40:22;;;;;;;;;;;2.80;99.90;3.30;100752.00;;;;337964;28;83341;-95
2022/01/21 00:40:34;;;;;;;;;;;2.80;99.90;3.30;100758.00;;;;338723;28;89729;-95
2022/01/21 00:40:46;;;;;;;;;;;2.80;99.90;3.30;100761.00;;;;336488;28;83390;-95
2022/01/21 00:41:02;;;;;;;;;;;2.70;99.90;3.30;100760.00;;;;336277;28;90742;-95
2022/01/21 00:41:19;;;;;;;;;;;2.70;99.90;3.30;100758.00;;;;339244;28;83264;-95
2022/01/21 00:41:35;;;;;;;;;;;2.70;99.90;3.30;100748.00;;;;337428;28;90388;-96
2022/01/21 00:41:58;;;;;;;;;;;2.70;99.90;3.40;100750.00;;;;339251;28;83395;-94
2022/01/21 00:42:32;;;;;;;;;;;2.70;99.90;3.40;100757.00;;;;336072;28;91814;-95
2022/01/21 00:43:10;;;;;;;;;;;2.70;99.90;3.30;100759.00;;;;337742;28;88710;-95
2022/01/21 00:43:33;;;;;;;;;;;2.70;99.90;3.30;100752.00;;;;338769;28;82626;-95
2022/01/21 00:43:45;;;;;;;;;;;2.70;99.90;3.30;100756.00;;;;334991;29;90462;-95
2022/01/21 00:43:57;;;;;;;;;;;2.70;99.90;3.30;100759.00;;;;338049;28;84205;-95
2022/01/21 00:44:09;;;;;;;;;;;2.70;99.90;3.30;100761.00;;;;336116;28;91036;-95
2022/01/21 00:44:21;;;;;;;;;;;2.70;99.90;3.30;100751.00;;;;339363;28;83286;-95
2022/01/21 00:44:33;;;;;;;;;;;2.70;99.90;3.30;100746.00;;;;340292;28;90268;-95
2022/01/21 00:44:45;;;;;;;;;;;2.70;99.90;3.30;100753.00;;;;339383;28;83373;-95
2022/01/21 00:45:00;;;;;;;;;;;2.70;99.90;3.30;100761.00;;;;338844;28;90182;-95
2022/01/21 00:45:14;;;;;;;;;;;2.70;99.90;3.30;100756.00;;;;337895;28;83197;-95
2022/01/21 00:45:26;;;;;;;;;;;2.70;99.90;3.30;100751.00;;;;335569;28;90747;-95
2022/01/21 00:45:38;;;;;;;;;;;2.70;99.90;3.30;100750.00;;;;338020;28;82411;-95
2022/01/21 00:45:50;;;;;;;;;;;2.70;99.90;3.30;100753.00;;;;338599;28;91876;-95
2022/01/21 00:46:03;;;;;;;;;;;2.70;99.90;3.30;100758.00;;;;339336;28;83502;-95
2022/01/21 00:46:15;;;;;;;;;;;2.70;99.90;3.30;100751.00;;;;336309;28;91038;-95
2022/01/21 00:46:27;;;;;;;;;;;2.70;99.90;3.30;100751.00;;;;335434;29;83321;-95
2022/01/21 00:46:39;;;;;;;;;;;2.70;99.90;3.30;100752.00;;;;336211;28;91621;-95
2022/01/21 00:46:51;;;;;;;;;;;2.70;99.90;3.30;100758.00;;;;334048;29;83309;-95
2022/01/21 00:47:03;;;;;;;;;;;2.70;99.90;3.30;100753.00;;;;337315;28;91909;-96
2022/01/21 00:47:15;;;;;;;;;;;2.70;99.90;3.30;100754.00;;;;336619;28;82348;-95
2022/01/21 00:47:28;;;;;;;;;;;2.70;99.90;3.20;100750.00;;;;336198;28;90328;-95
2022/01/21 00:47:42;;;;;;;;;;;2.60;99.90;3.30;100755.00;;;;335463;29;83455;-96
2022/01/21 00:47:54;;;;;;;;;;;2.70;99.90;3.30;100747.00;;;;337614;28;90966;-95
2022/01/21 00:48:06;;;;;;;;;;;2.70;99.90;3.30;100753.00;;;;339286;28;83486;-95
2022/01/21 00:48:18;;;;;;;;;;;2.70;99.90;3.30;100751.00;;;;334163;29;90213;-95
2022/01/21 00:48:29;;;;;;;;;;;2.70;99.90;3.30;100747.00;;;;335556;28;82550;-95
2022/01/21 00:48:41;;;;;;;;;;;2.70;99.90;3.30;100753.00;;;;338969;28;91707;-96
2022/01/21 00:48:53;;;;;;;;;;;2.70;99.90;3.30;100739.00;;;;336789;28;83395;-95
2022/01/21 00:49:05;;;;;;;;;;;2.70;99.90;3.30;100753.00;;;;334961;29;89948;-95
2022/01/21 00:49:17;;;;;;;;;;;2.70;99.90;3.30;100757.00;;;;333837;29;83756;-95
2022/01/21 00:49:28;;;;;;;;;;;2.70;99.90;3.30;100764.00;;;;337418;28;89584;-95
2022/01/21 00:49:40;;;;;;;;;;;2.70;99.90;3.30;100755.00;;;;339350;28;82831;-95
2022/01/21 00:49:53;;;;;;;;;;;2.70;99.90;3.30;100756.00;;;;337481;28;91851;-95
2022/01/21 00:50:05;;;;;;;;;;;2.70;99.90;3.30;100755.00;;;;339437;28;82396;-95
2022/01/21 00:50:17;;;;;;;;;;;2.70;99.90;3.30;100760.00;;;;337634;28;91859;-95
2022/01/21 00:50:29;;;;;;;;;;;2.70;99.90;3.30;100762.00;;;;339250;28;83446;-96
2022/01/21 00:50:41;;;;;;;;;;;2.70;99.90;3.30;100754.00;;;;337650;28;90980;-95
2022/01/21 00:50:53;;;;;;;;;;;2.70;99.90;3.20;100757.00;;;;336730;28;82676;-94
2022/01/21 00:51:05;;;;;;;;;;;2.70;99.90;3.20;100736.00;;;;340193;28;91346;-94
2022/01/21 00:51:17;;;;;;;;;;;2.70;99.90;3.20;100755.00;;;;339122;28;82630;-95
2022/01/21 00:51:28;;;;;;;;;;;2.70;99.90;3.20;100740.00;;;;337384;28;90752;-95
2022/01/21 00:51:41;;;;;;;;;;;2.60;99.90;3.20;100746.00;;;;339221;28;83473;-95
2022/01/21 00:51:52;;;;;;;;;;;2.70;99.90;3.20;100755.00;;;;337524;28;89637;-95
2022/01/21 00:52:04;;;;;;;;;;;2.70;99.90;3.30;100762.00;;;;336546;28;82652;-94
2022/01/21 00:52:16;;;;;;;;;;;2.60;99.90;3.30;100767.00;;;;338785;28;91926;-95
2022/01/21 00:52:28;;;;;;;;;;;2.70;99.90;3.30;100756.00;;;;340742;28;83325;-95
2022/01/21 00:52:40;;;;;;;;;;;2.70;99.90;3.30;100761.00;;;;337564;28;89716;-94
2022/01/21 00:52:52;;;;;;;;;;;2.70;99.90;3.20;100753.00;;;;339099;28;82568;-95
2022/01/21 00:53:03;;;;;;;;;;;2.60;99.90;3.30;100769.00;;;;340204;28;91685;-95
2022/01/21 00:53:15;;;;;;;;;;;2.60;99.90;3.30;100760.00;;;;336592;28;82595;-96
2022/01/21 00:53:27;;;;;;;;;;;2.70;99.90;3.30;100759.00;;;;337688;28;90336;-95
2022/01/21 00:53:39;;;;;;;;;;;2.60;99.90;3.30;100760.00;;;;340519;28;82537;-95
2022/01/21 00:53:51;;;;;;;;;;;2.60;99.90;3.30;100770.00;;;;334843;28;90690;-95
2022/01/21 00:54:03;;;;;;;;;;;2.70;99.90;3.20;100758.00;;;;337991;28;82549;-95
2022/01/21 00:54:15;;;;;;;;;;;2.70;99.90;3.20;100759.00;;;;339000;28;89788;-95
2022/01/21 00:54:27;;;;;;;;;;;2.60;99.90;3.20;100751.00;;;;337583;28;83710;-96
2022/01/21 00:54:40;;;;;;;;;;;2.60;99.90;3.30;100754.00;;;;337512;28;90914;-95
2022/01/21 00:54:52;;;;;;;;;;;2.60;99.90;3.20;100758.00;;;;339228;28;82547;-95
2022/01/21 00:55:05;;;;;;;;;;;2.60;99.90;3.10;100756.00;;;;336427;28;91400;-96
2022/01/21 00:55:17;;;;;;;;;;;2.60;99.90;3.20;100762.00;;;;338173;28;82628;-95
2022/01/21 00:55:29;;;;;;;;;;;2.60;99.90;3.10;100766.00;;;;337647;28;90614;-95
2022/01/21 00:55:40;;;;;;;;;;;2.60;99.90;3.20;100754.00;;;;338084;28;82462;-95
2022/01/21 00:55:52;;;;;;;;;;;2.60;99.90;3.20;100759.00;;;;338716;28;90614;-95
2022/01/21 00:56:04;;;;;;;;;;;2.60;99.90;3.20;100759.00;;;;337030;28;82424;-96
2022/01/21 00:56:16;;;;;;;;;;;2.60;99.90;3.20;100763.00;;;;338041;28;90964;-96
2022/01/21 00:56:28;;;;;;;;;;;2.60;99.90;3.20;100749.00;;;;339774;28;82340;-95
2022/01/21 00:56:40;;;;;;;;;;;2.60;99.90;3.20;100761.00;;;;339142;28;89804;-95
2022/01/21 00:56:52;;;;;;;;;;;2.60;99.90;3.20;100745.00;;;;339523;28;83434;-95
2022/01/21 00:57:04;;;;;;;;;;;2.60;99.90;3.20;100762.00;;;;336285;28;89939;-94
2022/01/21 00:57:16;;;;;;;;;;;2.60;99.90;3.20;100755.00;;;;339409;28;82569;-95
2022/01/21 00:57:28;;;;;;;;;;;2.60;99.90;3.20;100755.00;;;;336577;28;90903;-95
2022/01/21 00:57:40;;;;;;;;;;;2.60;99.90;3.20;100755.00;;;;338323;28;83478;-95
2022/01/21 00:57:52;;;;;;;;;;;2.60;99.90;3.20;100750.00;;;;337459;28;90775;-95
2022/01/21 00:58:03;;;;;;;;;;;2.60;99.90;3.20;100748.00;;;;339483;28;82670;-95
2022/01/21 00:58:16;;;;;;;;;;;2.60;99.90;3.20;100762.00;;;;338704;28;89101;-95
2022/01/21 00:58:28;;;;;;;;;;;2.60;99.90;3.20;100757.00;;;;338005;28;83412;-95
2022/01/21 00:58:40;;;;;;;;;;;2.60;99.90;3.20;100764.00;;;;339042;28;89095;-95
2022/01/21 00:58:52;;;;;;;;;;;2.60;99.90;3.20;100755.00;;;;336818;28;82592;-95
2022/01/21 00:59:06;;;;;;;;;;;2.60;99.90;3.20;100744.00;;;;336872;28;91577;-95
2022/01/21 00:59:18;;;;;;;;;;;2.60;99.90;3.20;100753.00;;;;338522;28;82601;-95
2022/01/21 00:59:30;;;;;;;;;;;2.60;99.90;3.20;100757.00;;;;335563;28;89581;-94
2022/01/21 00:59:42;;;;;;;;;;;2.60;99.90;3.20;100759.00;;;;338370;28;82613;-94
2022/01/21 00:59:53;;;;;;;;;;;2.60;99.90;3.20;100755.00;;;;336772;28;90840;-95
2022/01/21 01:00:07;;;;;;;;;;;2.60;99.90;3.20;100745.00;;;;337955;28;82412;-94
2022/01/21 01:00:19;;;;;;;;;;;2.60;99.90;3.20;100760.00;;;;337449;28;89465;-95
2022/01/21 01:00:31;;;;;;;;;;;2.60;99.90;3.20;100748.00;;;;337582;28;82336;-95
2022/01/21 01:00:43;;;;;;;;;;;2.60;99.90;3.20;100741.00;;;;339712;28;87839;-95
2022/01/21 01:00:55;;;;;;;;;;;2.60;99.90;3.20;100742.00;;;;337694;28;82589;-95
2022/01/21 01:01:07;;;;;;;;;;;2.60;99.90;3.20;100745.00;;;;337075;28;90475;-95
2022/01/21 01:01:20;;;;;;;;;;;2.60;99.90;3.30;100748.00;;;;338263;28;82342;-94
2022/01/21 01:01:32;;;;;;;;;;;2.60;99.90;3.20;100748.00;;;;336074;29;90775;-95
2022/01/21 01:01:44;;;;;;;;;;;2.60;99.90;3.20;100750.00;;;;337550;28;83495;-94
2022/01/21 01:01:56;;;;;;;;;;;2.60;99.90;3.20;100757.00;;;;337519;28;90371;-95
2022/01/21 01:02:08;;;;;;;;;;;2.60;99.90;3.20;100754.00;;;;336529;29;83451;-95
2022/01/21 01:02:20;;;;;;;;;;;2.60;99.90;3.20;100752.00;;;;337170;28;90328;-95
2022/01/21 01:02:32;;;;;;;;;;;2.60;99.90;3.20;100746.00;;;;338178;28;82534;-95
2022/01/21 01:02:44;;;;;;;;;;;2.60;99.90;3.20;100759.00;;;;337650;28;91533;-95
2022/01/21 01:02:56;;;;;;;;;;;2.60;99.90;3.20;100755.00;;;;340859;28;82544;-95
2022/01/21 01:03:08;;;;;;;;;;;2.60;99.90;3.20;100751.00;;;;337675;28;91856;-94
2022/01/21 01:03:20;;;;;;;;;;;2.60;99.90;3.20;100755.00;;;;337974;28;82581;-95
2022/01/21 01:03:32;;;;;;;;;;;2.60;99.90;3.20;100755.00;;;;338989;28;89448;-95
2022/01/21 01:03:44;;;;;;;;;;;2.60;99.90;3.20;100751.00;;;;338122;28;82509;-96
2022/01/21 01:03:56;;;;;;;;;;;2.60;99.90;3.20;100752.00;;;;339192;28;90397;-95
2022/01/21 01:04:08;;;;;;;;;;;2.60;99.90;3.20;100750.00;;;;339632;28;82455;-95
2022/01/21 01:04:20;;;;;;;;;;;2.60;99.90;3.20;100751.00;;;;339715;28;90379;-95
2022/01/21 01:04:32;;;;;;;;;;;2.60;99.90;3.10;100750.00;;;;342412;28;82394;-95
2022/01/21 01:04:43;;;;;;;;;;;2.60;99.90;3.20;100752.00;;;;336435;28;89636;-95
2022/01/21 01:04:55;;;;;;;;;;;2.60;99.90;3.10;100753.00;;;;338161;28;82551;-95
2022/01/21 01:05:10;;;;;;;;;;;2.60;99.90;3.10;100764.00;;;;340242;28;92845;-94
2022/01/21 01:05:22;;;;;;;;;;;2.60;99.90;3.10;100753.00;;;;336912;29;82552;-94
2022/01/21 01:05:34;;;;;;;;;;;2.60;99.90;3.10;100756.00;;;;338631;28;89338;-95
2022/01/21 01:05:51;;;;;;;;;;;2.60;99.90;3.10;100753.00;;;;338712;28;83432;-95
2022/01/21 01:06:02;;;;;;;;;;;2.60;99.90;3.20;100750.00;;;;337967;28;91295;-95
2022/01/21 01:06:14;;;;;;;;;;;2.60;99.90;3.20;100750.00;;;;338213;28;83522;-95
2022/01/21 01:06:26;;;;;;;;;;;2.50;99.90;3.20;100742.00;;;;337520;28;90715;-95
2022/01/21 01:06:38;;;;;;;;;;;2.50;99.90;3.10;100755.00;;;;335697;29;83480;-95
2022/01/21 01:06:50;;;;;;;;;;;2.60;99.90;3.10;100742.00;;;;336316;28;91488;-94
2022/01/21 01:07:02;;;;;;;;;;;2.60;99.90;3.20;100744.00;;;;337312;28;82396;-95
2022/01/21 01:07:14;;;;;;;;;;;2.50;99.90;3.20;100745.00;;;;337001;28;92626;-95
2022/01/21 01:07:26;;;;;;;;;;;2.50;99.90;3.10;100751.00;;;;340511;28;82603;-95
2022/01/21 01:07:37;;;;;;;;;;;2.50;99.90;3.10;100760.00;;;;340164;28;90425;-95
2022/01/21 01:07:49;;;;;;;;;;;2.50;99.90;3.10;100746.00;;;;339069;28;82585;-95
2022/01/21 01:08:03;;;;;;;;;;;2.50;99.90;3.10;100748.00;;;;337080;28;89569;-95
2022/01/21 01:08:15;;;;;;;;;;;2.50;99.90;3.10;100748.00;;;;334550;29;83392;-95
2022/01/21 01:08:27;;;;;;;;;;;2.50;99.90;3.10;100735.00;;;;336504;28;90682;-95
2022/01/21 01:08:39;;;;;;;;;;;2.50;99.90;3.10;100749.00;;;;338304;28;82581;-95
2022/01/21 01:08:52;;;;;;;;;;;2.50;99.90;3.10;100754.00;;;;336311;28;90373;-95
2022/01/21 01:09:04;;;;;;;;;;;2.50;99.90;3.10;100740.00;;;;338127;28;82447;-95
2022/01/21 01:09:16;;;;;;;;;;;2.50;99.90;3.10;100750.00;;;;337824;28;91948;-94
2022/01/21 01:09:28;;;;;;;;;;;2.50;99.90;3.10;100750.00;;;;337984;28;82539;-95
2022/01/21 01:09:42;;;;;;;;;;;2.50;99.90;3.10;100755.00;;;;339065;28;90568;-94
2022/01/21 01:09:56;;;;;;;;;;;2.50;99.90;3.10;100755.00;;;;337943;28;82578;-95
2022/01/21 01:10:12;;;;;;;;;;;2.50;99.90;3.10;100747.00;;;;336352;28;90330;-94
2022/01/21 01:10:38;;;;;;;;;;;2.50;99.90;3.10;100741.00;;;;337862;28;82621;-95
2022/01/21 01:11:54;;;;;;;;;;;2.50;99.90;3.10;100745.00;;;;336209;28;90734;-94
2022/01/21 01:20:08;;;;;;;;;;;2.40;99.90;3.10;100746.00;;;;333992;29;89417;-95
2022/01/21 01:20:19;;;;;;;;;;;2.40;99.90;3.10;100753.00;;;;334380;29;82368;-95
2022/01/21 01:20:31;;;;;;;;;;;2.40;99.90;3.10;100757.00;;;;336732;28;89842;-96
2022/01/21 01:20:43;;;;;;;;;;;2.40;99.90;3.00;100750.00;;;;334509;29;82682;-96
2022/01/21 01:20:56;;;;;;;;;;;2.40;99.90;3.10;100744.00;;;;336511;28;89330;-96
2022/01/21 01:21:07;;;;;;;;;;;2.50;99.90;3.00;100751.00;;;;335656;29;82562;-95
2022/01/21 01:21:20;;;;;;;;;;;2.40;99.90;3.10;100740.00;;;;334810;29;90734;-95
2022/01/21 01:21:32;;;;;;;;;;;2.50;99.90;3.00;100758.00;;;;335408;29;82555;-96
2022/01/21 01:21:47;;;;;;;;;;;2.40;99.90;3.00;100757.00;;;;336244;28;91120;-95
2022/01/21 01:21:59;;;;;;;;;;;2.40;99.90;3.00;100747.00;;;;335354;29;82580;-95
2022/01/21 01:22:13;;;;;;;;;;;2.40;99.90;3.00;100749.00;;;;333880;29;91797;-95
2022/01/21 01:22:33;;;;;;;;;;;2.40;99.90;3.00;100742.00;;;;336558;28;82623;-95
2022/01/21 01:23:19;;;;;;;;;;;2.40;99.90;3.00;100749.00;;;;334491;29;82333;-95
2022/01/21 01:24:02;;;;;;;;;;;2.40;99.90;3.00;100753.00;;;;337679;28;91746;-94
2022/01/21 01:27:37;;;;;;;;;;;2.30;99.90;3.00;100758.00;;;;334939;29;89767;-95